Airfield :
LOGIN :

Register | Disclaimer

   EN    FR    IT 

 










Legend :    VFR   Marginal VFR   IFR   Intensive IFR   Very Intensive IFR
Visi :
Ceiling :
>= 8 km
>= 3000ft
5 to 8 km
1000 to 3000 ft
1500m to 5 km
500 to 1000 ft
800 to 1500m
200 to 500 ft
< 800m
< 200 ft
Symbols :   Thunderstorms  Fog  Heavy snow  Heavy precipitations  Wind > 20 kt
SIGMETs :     Misc.  Thunderstorms  Icing  Turbulence  Mountain Waves  Volcanic Ashes







- Airport Elevation : -11 ft
- IATA code : AMS


EHAM - Amsterdam Schiphol

CURRENT METAR :
  • 150955Z 19012KT CAVOK 20/12 Q1010 NOSIG

EXPIRED METARs :
  • 150925Z 18008KT 160V220 CAVOK 19/12 Q1010 NOSIG
  • 150855Z 17010KT CAVOK 18/11 Q1010 NOSIG
  • 150825Z 16008KT 130V190 CAVOK 18/11 Q1010 NOSIG
  • 150755Z 16007KT 130V190 CAVOK 16/11 Q1010 NOSIG
  • 150725Z 14008KT CAVOK 15/10 Q1009 NOSIG

TAF TAF EHAM
Valid from the 15 at 06:00 until the 16 at 12:00 UTC


150511Z 1506/1612 16006KT CAVOK
BECMG 1507/1510 20010KT
BECMG 1514/1517 VRB03KT
BECMG 1522/1601 7000 MIFG
PROB30
TEMPO 1600/1606 1500 BCFG
BECMG 1606/1609 13005KT CAVOK
No reported NOTAMs for that airfield.



MET'MAP, your aeronautical weather chart ! - Copyright ORBIFLY December 2007 - Disclaimer

ORBIFLY MET'MAP TEAM :

Programming & Development : Alexandra Zaïnal
Concept & Development : Baudouin d'Aumeries
Co-Development & Prog : Marc-Olivier Méhu
Technical & hardware support : Manuel Goepfert

Contact : metmap@orbifly.com




SOURCES & CREDITS :

   NOAA